createdAt,value
2023-05-14T00:00:58.088Z,21.85
2023-05-14T00:03:18.109Z,20.67
2023-05-14T00:05:20.525Z,24.08
2023-05-14T00:07:31.326Z,20.90
2023-05-14T00:09:36.329Z,22.27
2023-05-14T00:11:57.953Z,21.67
2023-05-14T00:14:02.781Z,20.35
2023-05-14T00:16:05.827Z,21.52
2023-05-14T00:18:27.484Z,19.63
2023-05-14T00:20:31.603Z,20.17
2023-05-14T00:22:41.343Z,21.65
2023-05-14T00:24:52.151Z,21.48
2023-05-14T00:27:03.249Z,21.10
2023-05-14T00:29:07.599Z,21.08
2023-05-14T00:31:11.027Z,21.08
2023-05-14T00:33:17.344Z,22.58
2023-05-14T00:35:22.306Z,23.33
2023-05-14T00:37:25.725Z,23.67
2023-05-14T00:39:31.636Z,21.83
2023-05-14T00:41:35.062Z,22.70
2023-05-14T00:43:41.445Z,22.20
2023-05-14T00:45:48.779Z,21.48
2023-05-14T00:47:54.978Z,22.80
2023-05-14T00:50:01.503Z,23.10
2023-05-14T00:52:07.802Z,22.63
2023-05-14T00:54:20.774Z,22.42
2023-05-14T00:56:27.843Z,22.15
2023-05-14T00:58:33.585Z,25.80
2023-05-14T01:00:37.253Z,22.98
2023-05-14T01:02:40.508Z,22.70
2023-05-14T01:04:44.365Z,21.77
2023-05-14T01:07:05.560Z,22.42
2023-05-14T01:09:26.369Z,23.75
2023-05-14T01:11:41.057Z,24.38
2023-05-14T01:13:53.168Z,22.35
2023-05-14T01:15:59.730Z,22.75
2023-05-14T01:18:09.100Z,22.58
2023-05-14T01:20:30.622Z,23.92
2023-05-14T01:22:34.929Z,24.08
2023-05-14T01:24:36.415Z,23.17
2023-05-14T01:26:38.249Z,25.98
2023-05-14T01:28:39.912Z,23.42
2023-05-14T01:30:53.962Z,25.38
2023-05-14T01:32:58.173Z,24.13
2023-05-14T01:35:18.956Z,25.00
2023-05-14T01:37:24.656Z,23.38
2023-05-14T01:39:26.667Z,25.38
2023-05-14T01:41:29.250Z,25.52
2023-05-14T01:43:49.319Z,23.48
2023-05-14T01:45:55.485Z,23.90
2023-05-14T01:47:59.960Z,24.98
2023-05-14T01:50:04.324Z,25.13
2023-05-14T01:52:07.330Z,23.60
2023-05-14T01:54:11.795Z,23.58
2023-05-14T01:56:13.236Z,24.55
2023-05-14T01:58:14.668Z,28.40
2023-05-14T02:00:16.246Z,24.88
2023-05-14T02:02:36.474Z,25.90
2023-05-14T02:04:40.934Z,26.58
2023-05-14T02:06:42.423Z,24.95
2023-05-14T02:10:50.882Z,25.90
2023-05-14T02:12:56.074Z,25.85
2023-05-14T02:15:00.081Z,25.50
2023-05-14T02:17:04.388Z,26.17
2023-05-14T02:19:06.453Z,25.30
2023-05-14T02:21:07.995Z,25.63
2023-05-14T02:25:13.383Z,25.60
2023-05-14T02:27:17.734Z,27.02
2023-05-14T02:31:23.319Z,27.25
2023-05-14T02:33:28.384Z,26.85
2023-05-14T02:35:32.967Z,27.38
2023-05-14T02:37:34.859Z,27.75
2023-05-14T02:39:36.313Z,28.65
2023-05-14T02:41:40.713Z,26.67
2023-05-14T02:43:45.085Z,27.17
2023-05-14T02:45:47.003Z,27.85
2023-05-14T02:47:51.027Z,28.02
2023-05-14T02:49:55.292Z,25.13
2023-05-14T02:52:00.879Z,26.05
2023-05-14T02:54:02.287Z,25.30
2023-05-14T02:56:03.831Z,26.17
2023-05-14T02:58:05.272Z,27.90
2023-05-14T03:00:09.931Z,26.55
2023-05-14T03:02:11.896Z,27.20
2023-05-14T03:04:16.600Z,27.10
2023-05-14T03:06:20.968Z,24.30
2023-05-14T03:08:22.434Z,25.83
2023-05-14T03:12:30.841Z,26.65
2023-05-14T03:14:35.246Z,28.02
2023-05-14T03:16:36.835Z,26.55
2023-05-14T03:18:38.294Z,27.48
2023-05-14T03:20:42.572Z,26.88
2023-05-14T03:22:44.070Z,27.83
2023-05-14T03:26:53.131Z,26.77
2023-05-14T03:28:57.458Z,26.73
2023-05-14T03:31:08.370Z,28.00
2023-05-14T03:33:20.893Z,26.13
2023-05-14T03:37:33.959Z,27.60
2023-05-14T03:39:42.549Z,26.20
2023-05-14T03:41:54.380Z,28.15
2023-05-14T03:44:04.078Z,27.73
2023-05-14T03:46:12.418Z,25.83
2023-05-14T03:48:22.344Z,28.30
2023-05-14T03:50:34.000Z,27.52
2023-05-14T03:52:47.262Z,28.90
2023-05-14T03:54:58.949Z,27.02
2023-05-14T03:57:08.362Z,27.70
2023-05-14T03:59:11.547Z,28.30
2023-05-14T04:01:15.620Z,28.30
2023-05-14T04:03:19.899Z,26.27
2023-05-14T04:05:21.496Z,27.55
2023-05-14T04:07:25.586Z,28.48
2023-05-14T04:09:30.423Z,27.48
2023-05-14T04:11:34.487Z,28.00
2023-05-14T04:13:36.070Z,28.10
2023-05-14T04:15:40.368Z,26.90
2023-05-14T04:17:41.928Z,28.58
2023-05-14T04:21:47.513Z,27.85
2023-05-14T04:23:51.638Z,28.52
2023-05-14T04:25:53.104Z,30.83
2023-05-14T04:27:54.568Z,30.85
2023-05-14T04:30:14.831Z,32.25
2023-05-14T04:32:16.645Z,29.65
2023-05-14T04:34:20.925Z,29.73
2023-05-14T04:36:22.451Z,30.83
2023-05-14T04:38:23.920Z,31.30
2023-05-14T04:40:28.144Z,30.67
2023-05-14T04:42:32.566Z,31.75
2023-05-14T04:44:37.715Z,31.98
2023-05-14T04:46:39.510Z,29.10
2023-05-14T04:48:43.692Z,29.83
2023-05-14T04:52:52.311Z,30.55
2023-05-14T04:54:56.929Z,28.38
2023-05-14T04:57:03.068Z,28.17
2023-05-14T04:59:07.212Z,28.13
2023-05-14T05:01:09.229Z,28.98
2023-05-14T05:03:13.672Z,29.40
2023-05-14T05:05:17.845Z,32.08
2023-05-14T05:07:22.430Z,30.08
2023-05-14T05:09:26.749Z,30.40
2023-05-14T05:11:47.033Z,31.05
2023-05-14T05:13:48.708Z,32.72
2023-05-14T05:15:53.008Z,33.75
2023-05-14T05:17:57.376Z,32.17
2023-05-14T05:19:58.816Z,30.50
2023-05-14T05:22:00.327Z,30.33
2023-05-14T05:26:08.712Z,31.23
2023-05-14T05:28:10.178Z,29.85
2023-05-14T05:30:14.447Z,32.40
2023-05-14T05:32:16.069Z,32.63
2023-05-14T05:34:17.674Z,33.05
2023-05-14T05:36:37.564Z,31.77
2023-05-14T05:38:57.314Z,30.98
2023-05-14T05:43:03.166Z,30.02
2023-05-14T05:45:07.841Z,31.60
2023-05-14T05:47:09.437Z,29.17
2023-05-14T05:49:13.780Z,31.48
2023-05-14T05:51:34.013Z,30.13
2023-05-14T05:53:38.124Z,30.33
2023-05-14T05:55:42.521Z,34.53
2023-05-14T05:57:43.956Z,30.48
2023-05-14T05:59:46.033Z,29.77
2023-05-14T06:01:50.455Z,32.05
2023-05-14T06:05:55.821Z,31.95
2023-05-14T06:07:57.246Z,30.40
2023-05-14T06:12:21.793Z,28.95
2023-05-14T06:14:23.354Z,29.85
2023-05-14T06:18:31.650Z,28.13
2023-05-14T06:20:34.289Z,28.48
2023-05-14T06:22:38.717Z,26.77
2023-05-14T06:24:40.236Z,28.15
2023-05-14T06:26:44.724Z,27.58
2023-05-14T06:28:46.257Z,27.95
2023-05-14T06:30:49.767Z,27.92
2023-05-14T06:32:53.766Z,26.20
2023-05-14T06:35:02.181Z,25.83
2023-05-14T06:37:14.691Z,24.63
2023-05-14T06:39:25.305Z,25.05
2023-05-14T06:41:43.643Z,24.55
2023-05-14T06:43:54.009Z,23.40
2023-05-14T06:46:08.877Z,23.33
2023-05-14T06:48:24.190Z,25.73
2023-05-14T06:50:54.785Z,25.67
2023-05-14T06:53:10.542Z,25.98
2023-05-14T06:55:22.787Z,26.10
2023-05-14T06:57:37.311Z,25.55
2023-05-14T06:59:48.242Z,25.88
2023-05-14T07:02:00.273Z,25.92
2023-05-14T07:04:15.844Z,25.48
2023-05-14T07:06:45.861Z,24.75
2023-05-14T07:09:07.073Z,25.00
2023-05-14T07:11:08.513Z,24.13
2023-05-14T07:13:12.924Z,22.85
2023-05-14T07:15:14.464Z,24.05
2023-05-14T07:17:19.019Z,25.00
2023-05-14T07:19:23.449Z,24.17
2023-05-14T07:21:43.651Z,24.67
2023-05-14T07:23:45.092Z,25.50
2023-05-14T07:27:50.840Z,25.67
2023-05-14T07:29:52.334Z,25.15
2023-05-14T07:34:00.602Z,24.70
2023-05-14T07:36:02.312Z,24.50
2023-05-14T07:38:05.796Z,25.02
2023-05-14T07:40:10.013Z,26.33
2023-05-14T07:42:19.532Z,24.58
2023-05-14T07:44:23.644Z,24.35
2023-05-14T07:46:25.845Z,23.58
2023-05-14T07:48:30.168Z,22.38
2023-05-14T07:50:34.686Z,23.38
2023-05-14T07:52:39.235Z,22.52
2023-05-14T07:54:40.737Z,21.48
2023-05-14T07:56:45.030Z,21.08
2023-05-14T07:58:46.885Z,21.13
2023-05-14T08:00:48.385Z,22.10
2023-05-14T08:02:53.030Z,19.60
2023-05-14T08:04:58.411Z,20.88
2023-05-14T08:07:02.752Z,19.00
2023-05-14T08:09:07.301Z,21.15
2023-05-14T08:11:11.779Z,20.65
2023-05-14T08:13:15.933Z,20.17
2023-05-14T08:15:20.095Z,19.58
2023-05-14T08:17:21.733Z,20.70
2023-05-14T08:19:27.400Z,19.63
2023-05-14T08:21:28.933Z,18.60
2023-05-14T08:23:30.530Z,18.05
2023-05-14T08:25:35.083Z,19.35
2023-05-14T08:27:37.826Z,18.65
2023-05-14T08:29:39.614Z,18.25
2023-05-14T08:31:43.989Z,19.67
2023-05-14T08:33:48.335Z,19.55
2023-05-14T08:35:54.039Z,18.38
2023-05-14T08:37:56.907Z,19.27
2023-05-14T08:40:01.547Z,18.88
2023-05-14T08:42:06.762Z,18.50
2023-05-14T08:44:14.485Z,18.67
2023-05-14T08:46:22.273Z,16.88
2023-05-14T08:48:26.778Z,16.45
2023-05-14T08:50:30.245Z,14.32
2023-05-14T08:52:35.099Z,14.48
2023-05-14T08:54:36.638Z,15.25
2023-05-14T08:56:41.860Z,15.02
2023-05-14T08:58:46.430Z,14.77
2023-05-14T09:01:07.068Z,14.13
2023-05-14T09:03:08.732Z,14.07
2023-05-14T09:05:13.194Z,12.93
2023-05-14T09:07:14.974Z,13.95
2023-05-14T09:09:16.573Z,14.00
2023-05-14T09:11:21.517Z,14.88
2023-05-14T09:13:22.964Z,13.88
2023-05-14T09:15:31.588Z,13.20
2023-05-14T09:17:33.509Z,12.88
2023-05-14T09:19:35.049Z,13.60
2023-05-14T09:21:36.645Z,13.55
2023-05-14T09:23:41.892Z,13.30
2023-05-14T09:25:43.316Z,12.63
2023-05-14T09:27:50.372Z,12.65
2023-05-14T09:30:11.565Z,12.65
2023-05-14T09:32:42.548Z,11.13
2023-05-14T09:35:22.484Z,12.05
2023-05-14T09:37:26.119Z,11.65
2023-05-14T09:39:29.838Z,9.85
2023-05-14T09:41:40.625Z,9.15
2023-05-14T09:43:51.089Z,10.68
2023-05-14T09:46:18.414Z,10.90
2023-05-14T09:48:24.104Z,9.50
2023-05-14T09:50:31.405Z,9.93
2023-05-14T09:52:42.692Z,9.00
2023-05-14T09:54:52.445Z,9.57
2023-05-14T09:57:00.897Z,10.43
2023-05-14T09:59:08.317Z,10.02
2023-05-14T10:01:16.664Z,10.27
2023-05-14T10:03:27.757Z,10.13
2023-05-14T10:05:42.449Z,8.50
2023-05-14T10:07:53.759Z,8.32
2023-05-14T10:10:07.435Z,8.45
2023-05-14T10:12:13.685Z,9.50
2023-05-14T10:14:20.997Z,9.30
2023-05-14T10:16:35.371Z,9.95
2023-05-14T10:18:41.120Z,8.25
2023-05-14T10:20:48.292Z,7.75
2023-05-14T10:23:08.326Z,7.93
2023-05-14T10:25:12.716Z,7.07
2023-05-14T10:27:15.208Z,6.85
2023-05-14T10:29:19.441Z,6.70
2023-05-14T10:31:43.733Z,6.30
2023-05-14T10:33:50.353Z,6.95
2023-05-14T10:35:55.081Z,6.93
2023-05-14T10:37:59.321Z,7.00
2023-05-14T10:40:06.313Z,5.72
2023-05-14T10:42:15.253Z,6.00
2023-05-14T10:44:16.891Z,5.93
2023-05-14T10:46:18.539Z,6.00
2023-05-14T10:48:23.834Z,4.93
2023-05-14T10:50:29.567Z,5.82
2023-05-14T10:52:35.131Z,5.65
2023-05-14T10:54:39.339Z,6.22
2023-05-14T10:56:43.529Z,5.45
2023-05-14T10:58:49.941Z,5.18
2023-05-14T11:00:55.478Z,6.03
2023-05-14T11:03:00.370Z,6.28
2023-05-14T11:05:05.940Z,6.05
2023-05-14T11:07:10.262Z,5.53
2023-05-14T11:09:12.965Z,5.55
2023-05-14T11:11:14.646Z,5.47
2023-05-14T11:13:16.840Z,5.20
2023-05-14T11:15:22.323Z,5.00
2023-05-14T11:17:27.188Z,3.97
2023-05-14T11:19:28.678Z,4.63
2023-05-14T11:21:30.523Z,4.45
2023-05-14T11:23:32.027Z,4.13
2023-05-14T11:25:33.447Z,4.50
2023-05-14T11:27:38.629Z,4.03
2023-05-14T11:29:43.392Z,3.58
2023-05-14T11:31:44.960Z,2.70
2023-05-14T11:34:07.158Z,3.50
2023-05-14T11:36:11.139Z,3.45
2023-05-14T11:38:16.429Z,3.17
2023-05-14T11:40:20.745Z,3.30
2023-05-14T11:42:23.667Z,4.00
2023-05-14T11:44:25.464Z,4.45
2023-05-14T11:46:28.507Z,4.10
2023-05-14T11:48:31.962Z,3.47
2023-05-14T11:50:36.640Z,4.25
2023-05-14T11:52:39.511Z,4.13
2023-05-14T11:54:42.078Z,4.00
2023-05-14T11:56:50.078Z,4.10
2023-05-14T11:58:58.373Z,3.33
2023-05-14T12:01:00.006Z,3.50
2023-05-14T12:03:04.184Z,3.85
2023-05-14T12:05:07.319Z,3.80
2023-05-14T12:07:12.728Z,4.72
2023-05-14T12:09:35.909Z,3.85
2023-05-14T12:11:56.099Z,4.90
2023-05-14T12:13:58.692Z,4.43
2023-05-14T12:16:20.857Z,4.10
2023-05-14T12:18:26.797Z,3.67
2023-05-14T12:20:31.369Z,3.00
2023-05-14T12:22:33.526Z,4.57
2023-05-14T12:26:57.438Z,5.35
2023-05-14T12:29:02.843Z,3.85
2023-05-14T12:31:04.642Z,6.32
2023-05-14T12:33:09.588Z,7.40
2023-05-14T12:35:11.220Z,7.18
2023-05-14T12:37:15.748Z,6.38
2023-05-14T12:39:17.608Z,5.95
2023-05-14T12:41:19.094Z,6.60
2023-05-14T12:43:24.342Z,5.90
2023-05-14T12:45:37.741Z,6.43
2023-05-14T12:47:50.007Z,5.90
2023-05-14T12:50:12.032Z,6.25
2023-05-14T12:52:47.997Z,6.13
2023-05-14T12:55:05.208Z,6.38
2023-05-14T12:57:16.714Z,6.28
2023-05-14T12:59:35.419Z,6.78
2023-05-14T13:02:14.850Z,7.20
2023-05-14T13:04:35.717Z,7.28
2023-05-14T13:06:52.476Z,7.05
2023-05-14T13:09:09.051Z,8.43
2023-05-14T13:11:25.992Z,8.25
2023-05-14T13:13:40.040Z,8.20
2023-05-14T13:15:53.603Z,8.27
2023-05-14T13:18:14.693Z,9.20
2023-05-14T13:20:43.195Z,9.13
2023-05-14T13:22:48.660Z,10.00
2023-05-14T13:24:50.251Z,9.23
2023-05-14T13:26:51.893Z,8.52
2023-05-14T13:28:53.344Z,9.60
2023-05-14T13:31:05.443Z,8.35
2023-05-14T13:33:07.099Z,8.57
2023-05-14T13:35:08.854Z,9.00
2023-05-14T13:37:10.939Z,8.82
2023-05-14T13:39:14.210Z,8.60
2023-05-14T13:41:19.143Z,7.45
2023-05-14T13:43:20.593Z,9.07
2023-05-14T13:45:25.067Z,8.70
2023-05-14T13:47:27.012Z,9.52
2023-05-14T13:49:28.617Z,8.63
2023-05-14T13:51:32.650Z,9.88
2023-05-14T13:53:34.115Z,10.30
2023-05-14T13:55:38.316Z,9.50
2023-05-14T13:57:43.109Z,10.02
2023-05-14T13:59:45.995Z,10.48
2023-05-14T14:01:49.544Z,11.60
2023-05-14T14:03:51.181Z,10.27
2023-05-14T14:05:55.458Z,10.73
2023-05-14T14:08:04.587Z,10.95
2023-05-14T14:10:21.664Z,10.43
2023-05-14T14:12:26.692Z,12.10
2023-05-14T14:14:28.299Z,11.30
2023-05-14T14:16:29.956Z,10.55
2023-05-14T14:18:34.506Z,11.13
2023-05-14T14:20:38.844Z,10.25
2023-05-14T14:22:44.160Z,10.32
2023-05-14T14:24:45.802Z,10.80
2023-05-14T14:27:05.796Z,11.68
2023-05-14T14:29:09.928Z,10.60
2023-05-14T14:31:11.510Z,11.43
2023-05-14T14:33:13.030Z,11.50
2023-05-14T14:35:17.806Z,10.68
2023-05-14T14:37:21.174Z,11.18
2023-05-14T14:39:25.374Z,10.30
2023-05-14T14:41:45.931Z,8.68
2023-05-14T14:43:50.675Z,9.23
2023-05-14T14:45:52.199Z,9.40
2023-05-14T14:48:13.735Z,8.65
2023-05-14T14:50:15.315Z,7.80
2023-05-14T14:52:16.834Z,8.10
2023-05-14T14:54:20.943Z,7.95
2023-05-14T14:56:26.873Z,7.60
2023-05-14T14:58:29.136Z,6.20
2023-05-14T15:00:30.619Z,6.15
2023-05-14T15:02:32.304Z,4.90
2023-05-14T15:04:34.743Z,3.95
2023-05-14T15:06:39.013Z,3.55
2023-05-14T15:08:40.499Z,3.17
2023-05-14T15:10:42.037Z,3.08
2023-05-14T15:12:46.109Z,5.43
2023-05-14T15:14:47.568Z,5.30
2023-05-14T15:16:51.934Z,5.18
2023-05-14T15:18:53.499Z,5.03
2023-05-14T15:20:55.894Z,3.92
2023-05-14T15:22:57.364Z,2.95
2023-05-14T15:25:01.842Z,2.70
2023-05-14T15:27:06.322Z,3.85
2023-05-14T15:29:07.837Z,3.00
2023-05-14T15:31:12.114Z,2.90
2023-05-14T15:33:19.639Z,3.42
2023-05-14T15:35:23.987Z,2.97
2023-05-14T15:37:26.025Z,3.67
2023-05-14T15:39:31.572Z,2.60
2023-05-14T15:41:34.422Z,2.75
2023-05-14T15:43:38.668Z,2.58
2023-05-14T15:45:40.070Z,2.40
2023-05-14T15:47:45.124Z,2.78
2023-05-14T15:49:49.658Z,2.92
2023-05-14T15:51:51.376Z,2.33
2023-05-14T15:53:57.243Z,2.88
2023-05-14T15:56:05.166Z,1.85
2023-05-14T15:58:10.013Z,2.38
2023-05-14T16:00:14.416Z,2.03
2023-05-14T16:02:19.322Z,2.58
2023-05-14T16:04:20.828Z,7.00
2023-05-14T16:06:22.336Z,7.32
2023-05-14T16:08:26.684Z,8.00
2023-05-14T16:10:47.090Z,9.40
2023-05-14T16:13:07.008Z,11.45
2023-05-14T16:15:27.130Z,10.93
2023-05-14T16:17:29.949Z,7.63
2023-05-14T16:19:38.685Z,9.00
2023-05-14T16:21:43.095Z,8.10
2023-05-14T16:23:47.444Z,8.07
2023-05-14T16:25:49.045Z,9.00
2023-05-14T16:27:50.667Z,8.10
2023-05-14T16:29:58.041Z,7.28
2023-05-14T16:31:59.637Z,6.78
2023-05-14T16:34:01.143Z,6.93
2023-05-14T16:36:08.183Z,7.90
2023-05-14T16:38:13.050Z,7.63
2023-05-14T16:40:20.268Z,7.60
2023-05-14T16:42:23.191Z,2.92
2023-05-14T16:44:28.913Z,3.08
2023-05-14T16:46:49.192Z,1.92
2023-05-14T16:48:53.495Z,1.67
2023-05-14T16:50:59.404Z,1.77
2023-05-14T16:53:03.758Z,2.17
2023-05-14T16:55:05.530Z,1.90
2023-05-14T16:57:26.465Z,2.72
2023-05-14T16:59:28.511Z,1.98
2023-05-14T17:01:30.598Z,6.72
2023-05-14T17:03:32.133Z,10.07
2023-05-14T17:05:36.246Z,8.63
2023-05-14T17:07:41.272Z,9.32
2023-05-14T17:09:42.737Z,8.82
2023-05-14T17:11:47.026Z,8.90
2023-05-14T17:13:48.442Z,9.40
2023-05-14T17:15:51.758Z,9.60
2023-05-14T17:17:55.626Z,10.30
2023-05-14T17:20:00.335Z,8.73
2023-05-14T17:22:03.970Z,11.48
2023-05-14T17:24:08.265Z,10.70
2023-05-14T17:26:11.096Z,11.13
2023-05-14T17:28:12.800Z,9.32
2023-05-14T17:30:14.265Z,10.30
2023-05-14T17:32:18.739Z,10.90
2023-05-14T17:34:20.242Z,10.25
2023-05-14T17:36:25.855Z,9.63
2023-05-14T17:38:45.847Z,10.40
2023-05-14T17:40:50.571Z,11.13
2023-05-14T17:42:52.049Z,10.40
2023-05-14T17:44:59.568Z,10.73
2023-05-14T17:47:04.801Z,11.27
2023-05-14T17:49:25.681Z,10.52
2023-05-14T17:51:28.173Z,11.52
2023-05-14T17:53:29.636Z,10.77
2023-05-14T17:55:39.911Z,10.82
2023-05-14T17:57:42.410Z,12.00
2023-05-14T17:59:44.030Z,11.43
2023-05-14T18:01:48.557Z,11.20
2023-05-14T18:03:50.084Z,11.18
2023-05-14T18:06:10.833Z,12.35
2023-05-14T18:08:15.453Z,12.13
2023-05-14T18:10:20.310Z,11.73
2023-05-14T18:12:22.814Z,11.38
2023-05-14T18:14:45.334Z,11.50
2023-05-14T18:16:47.204Z,11.88
2023-05-14T18:18:50.500Z,12.45
2023-05-14T18:20:55.666Z,12.63
2023-05-14T18:22:59.896Z,12.45
2023-05-14T18:25:01.327Z,14.23
2023-05-14T18:27:07.007Z,13.00
2023-05-14T18:29:11.526Z,13.73
2023-05-14T18:31:14.255Z,13.88
2023-05-14T18:33:18.815Z,13.25
2023-05-14T18:35:23.083Z,18.40
2023-05-14T18:37:43.796Z,13.43
2023-05-14T18:39:45.271Z,14.27
2023-05-14T18:41:46.758Z,14.30
2023-05-14T18:44:06.834Z,14.80
2023-05-14T18:46:08.480Z,16.60
2023-05-14T18:48:14.554Z,15.85
2023-05-14T18:50:17.061Z,14.70
2023-05-14T18:52:20.764Z,15.50
2023-05-14T18:54:24.023Z,15.02
2023-05-14T18:56:30.712Z,16.30
2023-05-14T18:58:37.294Z,16.00
2023-05-14T19:00:44.917Z,15.18
2023-05-14T19:03:06.415Z,15.35
2023-05-14T19:05:12.377Z,17.15
2023-05-14T19:07:18.460Z,77.18
2023-05-14T19:09:25.562Z,222.15
2023-05-14T19:11:32.177Z,186.95
2023-05-14T19:13:38.155Z,61.90
2023-05-14T19:15:44.684Z,28.83
2023-05-14T19:17:51.330Z,66.18
2023-05-14T19:19:54.754Z,25.98
2023-05-14T19:22:01.472Z,8.00
2023-05-14T19:24:04.820Z,5.05
2023-05-14T19:26:10.833Z,3.47
2023-05-14T19:28:14.492Z,6.85
2023-05-14T19:30:17.052Z,4.97
2023-05-14T19:32:21.601Z,6.25
2023-05-14T19:34:27.067Z,28.70
2023-05-14T19:36:32.241Z,27.25
2023-05-14T19:38:33.832Z,11.30
2023-05-14T19:40:37.991Z,28.35
2023-05-14T19:42:39.501Z,27.23
2023-05-14T19:44:40.973Z,11.10
2023-05-14T19:46:45.760Z,5.05
2023-05-14T19:48:48.470Z,20.75
2023-05-14T19:50:52.562Z,33.53
2023-05-14T19:52:53.972Z,2.38
2023-05-14T19:54:58.475Z,1.67
2023-05-14T19:57:03.480Z,1.48
2023-05-14T19:59:04.910Z,41.55
2023-05-14T20:01:24.920Z,7.50
2023-05-14T20:03:26.637Z,3.63
2023-05-14T20:05:28.394Z,1.50
2023-05-14T20:07:29.924Z,1.77
2023-05-14T20:09:31.457Z,4.70
2023-05-14T20:11:33.037Z,3.67
2023-05-14T20:13:40.168Z,7.47
2023-05-14T20:15:41.910Z,2.13
2023-05-14T20:17:46.242Z,4.15
2023-05-14T20:19:47.708Z,1.60
2023-05-14T20:21:52.133Z,1.15
2023-05-14T20:23:56.273Z,1.25
2023-05-14T20:25:57.675Z,10.05
2023-05-14T20:28:02.156Z,2.95
2023-05-14T20:30:06.848Z,1.15
2023-05-14T20:32:11.185Z,3.50
2023-05-14T20:34:12.596Z,1.50
2023-05-14T20:38:19.132Z,2.05
2023-05-14T20:40:21.462Z,2.90
2023-05-14T20:42:42.189Z,4.03
2023-05-14T20:44:44.514Z,3.35
2023-05-14T20:46:48.890Z,7.85
2023-05-14T20:48:56.472Z,3.60
2023-05-14T20:51:01.705Z,2.75
2023-05-14T20:53:21.824Z,13.80
2023-05-14T20:55:26.513Z,6.90
2023-05-14T20:57:31.233Z,4.47
2023-05-14T20:59:35.375Z,6.63
2023-05-14T21:01:36.850Z,4.25
2023-05-14T21:03:38.572Z,4.40
2023-05-14T21:05:43.744Z,11.82
2023-05-14T21:07:45.442Z,4.72
2023-05-14T21:09:52.426Z,6.93
2023-05-14T21:11:54.431Z,5.90
2023-05-14T21:13:56.038Z,7.03
2023-05-14T21:16:00.717Z,4.25
2023-05-14T21:18:05.309Z,2.67
2023-05-14T21:20:07.184Z,7.25
2023-05-14T21:22:08.647Z,8.15
2023-05-14T21:26:14.093Z,5.25
2023-05-14T21:28:18.415Z,11.05
2023-05-14T21:30:19.959Z,9.60
2023-05-14T21:32:22.242Z,2.55
2023-05-14T21:34:26.717Z,2.15
2023-05-14T21:36:31.169Z,13.32
2023-05-14T21:38:36.080Z,11.90
2023-05-14T21:40:40.886Z,7.88
2023-05-14T21:42:42.526Z,10.48
2023-05-14T21:44:44.004Z,10.48
2023-05-14T21:46:48.125Z,11.25
2023-05-14T21:49:08.338Z,2.10
2023-05-14T21:51:09.983Z,1.70
2023-05-14T21:53:14.213Z,1.77
2023-05-14T21:55:18.399Z,1.70
2023-05-14T21:57:22.999Z,1.40
2023-05-14T21:59:24.560Z,1.60
2023-05-14T22:01:28.606Z,2.03
2023-05-14T22:03:48.658Z,4.57
2023-05-14T22:05:53.277Z,8.27
2023-05-14T22:07:54.732Z,6.32
2023-05-14T22:10:05.940Z,3.25
2023-05-14T22:12:15.037Z,4.78
2023-05-14T22:14:25.040Z,3.30
2023-05-14T22:16:36.046Z,1.73
2023-05-14T22:18:45.362Z,2.08
2023-05-14T22:20:58.443Z,2.85
2023-05-14T22:23:06.154Z,2.22
2023-05-14T22:25:14.866Z,2.88
2023-05-14T22:27:25.467Z,4.50
2023-05-14T22:29:38.147Z,10.90
2023-05-14T22:31:46.382Z,12.95
2023-05-14T22:34:01.326Z,7.95
2023-05-14T22:36:13.849Z,7.25
2023-05-14T22:38:16.581Z,9.40
2023-05-14T22:40:18.024Z,8.55
2023-05-14T22:42:38.227Z,8.15
2023-05-14T22:44:42.279Z,6.10
2023-05-14T22:46:43.734Z,7.10
2023-05-14T22:48:49.270Z,4.47
2023-05-14T22:50:53.649Z,6.25
2023-05-14T22:52:55.089Z,11.38
2023-05-14T22:54:56.730Z,10.02
2023-05-14T22:57:00.957Z,5.00
2023-05-14T22:59:02.478Z,3.30
2023-05-14T23:03:08.036Z,7.03
2023-05-14T23:05:27.999Z,3.47
2023-05-14T23:07:32.253Z,3.72
2023-05-14T23:09:33.790Z,3.40
2023-05-14T23:11:35.348Z,3.50
2023-05-14T23:13:39.764Z,7.97
2023-05-14T23:15:44.176Z,13.75
2023-05-14T23:17:48.382Z,11.40
2023-05-14T23:19:53.073Z,14.88
2023-05-14T23:21:54.751Z,24.08
2023-05-14T23:23:58.979Z,24.13
2023-05-14T23:26:03.424Z,16.10
2023-05-14T23:28:05.104Z,31.02
2023-05-14T23:30:09.710Z,16.45
2023-05-14T23:32:11.271Z,68.00
2023-05-14T23:34:31.450Z,94.75
2023-05-14T23:36:51.637Z,57.42
2023-05-14T23:38:56.036Z,51.28
2023-05-14T23:41:00.435Z,58.90
2023-05-14T23:43:04.754Z,28.55
2023-05-14T23:45:25.234Z,37.78
2023-05-14T23:47:27.047Z,44.55
2023-05-14T23:49:31.493Z,31.33
2023-05-14T23:51:37.730Z,18.20
2023-05-14T23:53:39.178Z,5.70
2023-05-14T23:55:43.491Z,4.75
2023-05-14T23:58:03.706Z,3.78
